sensor_id;sensor_type;location;lat;lon;timestamp;temperature;humidity
75964;DHT22;65820;44.726;37.764;2023-03-30T00:00:45;19.20;52.24
75964;DHT22;65820;44.726;37.764;2023-03-30T00:01:47;19.20;51.53
75964;DHT22;65820;44.726;37.764;2023-03-30T00:02:49;19.20;51.53
75964;DHT22;65820;44.726;37.764;2023-03-30T00:03:53;19.21;51.32
75964;DHT22;65820;44.726;37.764;2023-03-30T00:04:56;19.21;51.54
75964;DHT22;65820;44.726;37.764;2023-03-30T00:06:04;19.20;52.48
75964;DHT22;65820;44.726;37.764;2023-03-30T00:07:05;19.21;51.67
75964;DHT22;65820;44.726;37.764;2023-03-30T00:08:08;19.18;51.52
75964;DHT22;65820;44.726;37.764;2023-03-30T00:09:10;19.20;51.55
75964;DHT22;65820;44.726;37.764;2023-03-30T00:10:14;19.18;51.40
75964;DHT22;65820;44.726;37.764;2023-03-30T00:11:17;19.17;51.31
75964;DHT22;65820;44.726;37.764;2023-03-30T00:12:19;19.18;51.74
75964;DHT22;65820;44.726;37.764;2023-03-30T00:13:20;19.18;51.40
75964;DHT22;65820;44.726;37.764;2023-03-30T00:14:22;19.17;51.47
75964;DHT22;65820;44.726;37.764;2023-03-30T00:15:29;19.15;51.73
75964;DHT22;65820;44.726;37.764;2023-03-30T00:16:31;19.17;51.25
75964;DHT22;65820;44.726;37.764;2023-03-30T00:17:32;19.17;51.63
75964;DHT22;65820;44.726;37.764;2023-03-30T00:18:34;19.17;51.37
75964;DHT22;65820;44.726;37.764;2023-03-30T00:19:36;19.17;51.32
75964;DHT22;65820;44.726;37.764;2023-03-30T00:20:39;19.15;51.53
75964;DHT22;65820;44.726;37.764;2023-03-30T00:21:43;19.17;51.50
75964;DHT22;65820;44.726;37.764;2023-03-30T00:22:45;19.16;51.31
75964;DHT22;65820;44.726;37.764;2023-03-30T00:23:48;19.15;51.27
75964;DHT22;65820;44.726;37.764;2023-03-30T00:24:50;19.15;51.33
75964;DHT22;65820;44.726;37.764;2023-03-30T00:25:51;19.15;51.31
75964;DHT22;65820;44.726;37.764;2023-03-30T00:26:53;19.15;51.27
75964;DHT22;65820;44.726;37.764;2023-03-30T00:27:54;19.15;51.73
75964;DHT22;65820;44.726;37.764;2023-03-30T00:28:56;19.15;51.44
75964;DHT22;65820;44.726;37.764;2023-03-30T00:29:57;19.15;51.85
75964;DHT22;65820;44.726;37.764;2023-03-30T00:30:59;19.14;51.45
75964;DHT22;65820;44.726;37.764;2023-03-30T00:32:01;19.15;51.30
75964;DHT22;65820;44.726;37.764;2023-03-30T00:33:06;19.15;51.38
75964;DHT22;65820;44.726;37.764;2023-03-30T00:34:08;19.13;51.33
75964;DHT22;65820;44.726;37.764;2023-03-30T00:35:10;19.13;51.62
75964;DHT22;65820;44.726;37.764;2023-03-30T00:36:12;19.14;51.24
75964;DHT22;65820;44.726;37.764;2023-03-30T00:37:14;19.13;51.56
75964;DHT22;65820;44.726;37.764;2023-03-30T00:38:15;19.13;51.53
75964;DHT22;65820;44.726;37.764;2023-03-30T00:39:17;19.13;51.17
75964;DHT22;65820;44.726;37.764;2023-03-30T00:40:21;19.13;51.91
75964;DHT22;65820;44.726;37.764;2023-03-30T00:41:23;19.13;51.43
75964;DHT22;65820;44.726;37.764;2023-03-30T00:42:24;19.13;51.38
75964;DHT22;65820;44.726;37.764;2023-03-30T00:43:27;19.13;51.29
75964;DHT22;65820;44.726;37.764;2023-03-30T00:46:07;19.11;51.41
75964;DHT22;65820;44.726;37.764;2023-03-30T00:47:09;19.13;51.10
75964;DHT22;65820;44.726;37.764;2023-03-30T00:49:15;19.12;51.26
75964;DHT22;65820;44.726;37.764;2023-03-30T00:50:19;19.12;51.74
75964;DHT22;65820;44.726;37.764;2023-03-30T00:51:22;19.11;51.26
75964;DHT22;65820;44.726;37.764;2023-03-30T00:52:23;19.10;51.36
75964;DHT22;65820;44.726;37.764;2023-03-30T00:53:32;19.12;51.93
75964;DHT22;65820;44.726;37.764;2023-03-30T00:54:34;19.12;51.30
75964;DHT22;65820;44.726;37.764;2023-03-30T00:55:38;19.11;51.79
75964;DHT22;65820;44.726;37.764;2023-03-30T00:56:40;19.11;51.40
75964;DHT22;65820;44.726;37.764;2023-03-30T00:57:42;19.12;50.96
75964;DHT22;65820;44.726;37.764;2023-03-30T00:58:45;19.10;51.43
75964;DHT22;65820;44.726;37.764;2023-03-30T00:59:48;19.11;51.39
75964;DHT22;65820;44.726;37.764;2023-03-30T01:00:51;19.09;51.25
75964;DHT22;65820;44.726;37.764;2023-03-30T01:01:52;19.10;51.04
75964;DHT22;65820;44.726;37.764;2023-03-30T01:03:00;19.11;51.70
75964;DHT22;65820;44.726;37.764;2023-03-30T01:04:05;19.10;51.69
75964;DHT22;65820;44.726;37.764;2023-03-30T01:05:08;19.09;51.60
75964;DHT22;65820;44.726;37.764;2023-03-30T01:06:10;19.10;51.46
75964;DHT22;65820;44.726;37.764;2023-03-30T01:07:11;19.10;51.21
75964;DHT22;65820;44.726;37.764;2023-03-30T01:08:13;19.09;51.37
75964;DHT22;65820;44.726;37.764;2023-03-30T01:09:17;19.09;51.59
75964;DHT22;65820;44.726;37.764;2023-03-30T01:10:19;19.10;51.71
75964;DHT22;65820;44.726;37.764;2023-03-30T01:11:21;19.09;50.89
75964;DHT22;65820;44.726;37.764;2023-03-30T01:12:22;19.09;51.46
75964;DHT22;65820;44.726;37.764;2023-03-30T01:13:24;19.09;51.42
75964;DHT22;65820;44.726;37.764;2023-03-30T01:14:25;19.08;51.35
75964;DHT22;65820;44.726;37.764;2023-03-30T01:15:30;19.09;51.21
75964;DHT22;65820;44.726;37.764;2023-03-30T01:19:03;19.08;51.21
75964;DHT22;65820;44.726;37.764;2023-03-30T01:30:17;19.06;51.30
75964;DHT22;65820;44.726;37.764;2023-03-30T01:35:51;19.05;51.37
75964;DHT22;65820;44.726;37.764;2023-03-30T01:44:56;19.03;51.46
75964;DHT22;65820;44.726;37.764;2023-03-30T01:46:15;19.02;51.21
75964;DHT22;65820;44.726;37.764;2023-03-30T01:47:44;19.02;51.32
75964;DHT22;65820;44.726;37.764;2023-03-30T01:50:18;19.01;51.42
75964;DHT22;65820;44.726;37.764;2023-03-30T01:51:34;19.01;51.44
75964;DHT22;65820;44.726;37.764;2023-03-30T01:52:43;19.01;51.50
75964;DHT22;65820;44.726;37.764;2023-03-30T01:54:08;19.01;51.66
75964;DHT22;65820;44.726;37.764;2023-03-30T01:55:19;19.01;51.65
75964;DHT22;65820;44.726;37.764;2023-03-30T01:56:47;19.00;51.72
75964;DHT22;65820;44.726;37.764;2023-03-30T01:57:54;19.00;51.59
75964;DHT22;65820;44.726;37.764;2023-03-30T01:59:01;19.00;51.25
75964;DHT22;65820;44.726;37.764;2023-03-30T02:00:08;19.01;51.47
75964;DHT22;65820;44.726;37.764;2023-03-30T02:01:14;19.01;51.40
75964;DHT22;65820;44.726;37.764;2023-03-30T02:02:19;19.00;51.26
75964;DHT22;65820;44.726;37.764;2023-03-30T02:03:27;18.99;51.33
75964;DHT22;65820;44.726;37.764;2023-03-30T02:04:33;18.99;51.53
75964;DHT22;65820;44.726;37.764;2023-03-30T02:05:37;18.99;51.66
75964;DHT22;65820;44.726;37.764;2023-03-30T02:06:46;19.00;51.52
75964;DHT22;65820;44.726;37.764;2023-03-30T02:08:00;18.99;51.33
75964;DHT22;65820;44.726;37.764;2023-03-30T02:09:07;18.99;51.37
75964;DHT22;65820;44.726;37.764;2023-03-30T02:10:13;18.99;51.41
75964;DHT22;65820;44.726;37.764;2023-03-30T02:11:16;18.99;51.55
75964;DHT22;65820;44.726;37.764;2023-03-30T02:12:18;19.00;51.40
75964;DHT22;65820;44.726;37.764;2023-03-30T02:13:21;19.00;51.57
75964;DHT22;65820;44.726;37.764;2023-03-30T02:14:26;18.99;51.47
75964;DHT22;65820;44.726;37.764;2023-03-30T02:15:34;19.00;51.46
75964;DHT22;65820;44.726;37.764;2023-03-30T02:16:44;18.99;51.32
75964;DHT22;65820;44.726;37.764;2023-03-30T02:17:46;19.01;51.79
75964;DHT22;65820;44.726;37.764;2023-03-30T02:18:48;18.99;51.40
75964;DHT22;65820;44.726;37.764;2023-03-30T02:19:49;19.00;51.42
75964;DHT22;65820;44.726;37.764;2023-03-30T02:20:52;18.99;51.36
75964;DHT22;65820;44.726;37.764;2023-03-30T02:21:53;18.99;51.51
75964;DHT22;65820;44.726;37.764;2023-03-30T02:22:55;19.00;51.39
75964;DHT22;65820;44.726;37.764;2023-03-30T02:23:59;18.99;51.24
75964;DHT22;65820;44.726;37.764;2023-03-30T02:25:04;18.99;51.41
75964;DHT22;65820;44.726;37.764;2023-03-30T02:26:06;18.99;51.46
75964;DHT22;65820;44.726;37.764;2023-03-30T02:27:09;18.99;51.43
75964;DHT22;65820;44.726;37.764;2023-03-30T02:28:10;18.98;51.15
75964;DHT22;65820;44.726;37.764;2023-03-30T02:29:13;19.00;51.33
75964;DHT22;65820;44.726;37.764;2023-03-30T02:30:15;18.99;51.30
75964;DHT22;65820;44.726;37.764;2023-03-30T02:31:17;18.98;51.28
75964;DHT22;65820;44.726;37.764;2023-03-30T02:32:25;18.99;51.24
75964;DHT22;65820;44.726;37.764;2023-03-30T02:38:46;18.98;51.48
75964;DHT22;65820;44.726;37.764;2023-03-30T02:41:42;18.99;51.15
75964;DHT22;65820;44.726;37.764;2023-03-30T02:47:16;18.98;50.97
75964;DHT22;65820;44.726;37.764;2023-03-30T02:48:41;18.98;51.22
75964;DHT22;65820;44.726;37.764;2023-03-30T02:53:31;18.95;51.21
75964;DHT22;65820;44.726;37.764;2023-03-30T02:54:44;18.97;51.12
75964;DHT22;65820;44.726;37.764;2023-03-30T02:55:57;18.96;51.19
75964;DHT22;65820;44.726;37.764;2023-03-30T02:58:53;18.96;50.92
75964;DHT22;65820;44.726;37.764;2023-03-30T02:59:59;18.96;51.21
75964;DHT22;65820;44.726;37.764;2023-03-30T03:01:18;18.95;50.98
75964;DHT22;65820;44.726;37.764;2023-03-30T03:02:40;18.95;51.00
75964;DHT22;65820;44.726;37.764;2023-03-30T03:04:02;18.95;50.92
75964;DHT22;65820;44.726;37.764;2023-03-30T03:05:13;18.94;50.95
75964;DHT22;65820;44.726;37.764;2023-03-30T03:06:27;18.94;51.03
75964;DHT22;65820;44.726;37.764;2023-03-30T03:07:30;18.94;51.25
75964;DHT22;65820;44.726;37.764;2023-03-30T03:08:37;18.95;51.03
75964;DHT22;65820;44.726;37.764;2023-03-30T03:09:42;18.95;51.02
75964;DHT22;65820;44.726;37.764;2023-03-30T03:10:43;18.93;50.98
75964;DHT22;65820;44.726;37.764;2023-03-30T03:11:46;18.93;50.95
75964;DHT22;65820;44.726;37.764;2023-03-30T03:12:48;18.94;51.00
75964;DHT22;65820;44.726;37.764;2023-03-30T03:13:49;18.94;51.01
75964;DHT22;65820;44.726;37.764;2023-03-30T03:14:51;18.95;50.68
75964;DHT22;65820;44.726;37.764;2023-03-30T03:15:54;18.94;50.95
75964;DHT22;65820;44.726;37.764;2023-03-30T03:17:00;18.95;51.03
75964;DHT22;65820;44.726;37.764;2023-03-30T03:18:07;18.94;50.98
75964;DHT22;65820;44.726;37.764;2023-03-30T03:19:10;18.94;50.85
75964;DHT22;65820;44.726;37.764;2023-03-30T03:20:13;18.95;51.08
75964;DHT22;65820;44.726;37.764;2023-03-30T03:21:15;18.96;51.22
75964;DHT22;65820;44.726;37.764;2023-03-30T03:22:16;18.97;50.98
75964;DHT22;65820;44.726;37.764;2023-03-30T03:23:19;18.97;51.42
75964;DHT22;65820;44.726;37.764;2023-03-30T03:24:24;18.98;51.44
75964;DHT22;65820;44.726;37.764;2023-03-30T03:25:44;18.98;51.22
75964;DHT22;65820;44.726;37.764;2023-03-30T03:26:47;18.98;51.02
75964;DHT22;65820;44.726;37.764;2023-03-30T03:27:48;18.96;51.05
75964;DHT22;65820;44.726;37.764;2023-03-30T03:28:57;18.97;50.97
75964;DHT22;65820;44.726;37.764;2023-03-30T03:29:58;18.97;50.62
75964;DHT22;65820;44.726;37.764;2023-03-30T03:31:00;18.98;50.62
75964;DHT22;65820;44.726;37.764;2023-03-30T03:32:02;18.97;50.60
75964;DHT22;65820;44.726;37.764;2023-03-30T03:33:11;18.97;50.97
75964;DHT22;65820;44.726;37.764;2023-03-30T03:34:15;18.98;51.29
75964;DHT22;65820;44.726;37.764;2023-03-30T03:35:37;18.98;51.23
75964;DHT22;65820;44.726;37.764;2023-03-30T03:36:40;18.98;51.31
75964;DHT22;65820;44.726;37.764;2023-03-30T03:37:43;18.97;51.32
75964;DHT22;65820;44.726;37.764;2023-03-30T03:38:45;18.98;51.37
75964;DHT22;65820;44.726;37.764;2023-03-30T03:39:47;18.97;51.02
75964;DHT22;65820;44.726;37.764;2023-03-30T03:40:50;18.98;50.44
75964;DHT22;65820;44.726;37.764;2023-03-30T03:41:52;18.98;50.84
75964;DHT22;65820;44.726;37.764;2023-03-30T03:42:53;18.99;50.58
75964;DHT22;65820;44.726;37.764;2023-03-30T03:43:55;18.97;50.62
75964;DHT22;65820;44.726;37.764;2023-03-30T03:44:56;18.99;50.48
75964;DHT22;65820;44.726;37.764;2023-03-30T03:45:58;18.98;50.56
75964;DHT22;65820;44.726;37.764;2023-03-30T03:46:59;18.98;50.21
75964;DHT22;65820;44.726;37.764;2023-03-30T03:48:00;18.97;50.62
75964;DHT22;65820;44.726;37.764;2023-03-30T03:49:22;18.98;50.49
75964;DHT22;65820;44.726;37.764;2023-03-30T03:50:23;19.00;50.89
75964;DHT22;65820;44.726;37.764;2023-03-30T03:51:25;19.02;50.98
75964;DHT22;65820;44.726;37.764;2023-03-30T03:52:29;19.02;51.08
75964;DHT22;65820;44.726;37.764;2023-03-30T03:53:31;19.02;51.20
75964;DHT22;65820;44.726;37.764;2023-03-30T03:54:35;19.02;50.95
75964;DHT22;65820;44.726;37.764;2023-03-30T03:55:37;19.03;51.08
75964;DHT22;65820;44.726;37.764;2023-03-30T03:56:38;19.05;50.90
75964;DHT22;65820;44.726;37.764;2023-03-30T03:57:39;19.07;51.29
75964;DHT22;65820;44.726;37.764;2023-03-30T03:58:41;19.09;51.40
75964;DHT22;65820;44.726;37.764;2023-03-30T03:59:43;19.10;51.54
75964;DHT22;65820;44.726;37.764;2023-03-30T04:00:47;19.11;51.47
75964;DHT22;65820;44.726;37.764;2023-03-30T04:01:49;19.12;51.77
75964;DHT22;65820;44.726;37.764;2023-03-30T04:02:50;19.13;51.82
75964;DHT22;65820;44.726;37.764;2023-03-30T04:03:51;19.16;52.27
75964;DHT22;65820;44.726;37.764;2023-03-30T04:04:52;19.17;52.40
75964;DHT22;65820;44.726;37.764;2023-03-30T04:05:58;19.18;52.55
75964;DHT22;65820;44.726;37.764;2023-03-30T04:07:00;19.20;53.30
75964;DHT22;65820;44.726;37.764;2023-03-30T04:08:01;19.20;52.89
75964;DHT22;65820;44.726;37.764;2023-03-30T04:09:03;19.22;52.35
75964;DHT22;65820;44.726;37.764;2023-03-30T04:10:24;19.23;51.41
75964;DHT22;65820;44.726;37.764;2023-03-30T04:11:50;19.24;51.98
75964;DHT22;65820;44.726;37.764;2023-03-30T04:13:26;19.25;52.04
75964;DHT22;65820;44.726;37.764;2023-03-30T04:14:50;19.25;50.92
75964;DHT22;65820;44.726;37.764;2023-03-30T04:16:08;19.24;50.80
75964;DHT22;65820;44.726;37.764;2023-03-30T04:17:40;19.23;50.82
75964;DHT22;65820;44.726;37.764;2023-03-30T04:19:19;19.23;50.87
75964;DHT22;65820;44.726;37.764;2023-03-30T04:20:45;19.23;50.80
75964;DHT22;65820;44.726;37.764;2023-03-30T04:22:12;19.24;50.76
75964;DHT22;65820;44.726;37.764;2023-03-30T04:23:36;19.22;50.81
75964;DHT22;65820;44.726;37.764;2023-03-30T04:24:58;19.23;50.71
75964;DHT22;65820;44.726;37.764;2023-03-30T04:26:26;19.26;51.48
75964;DHT22;65820;44.726;37.764;2023-03-30T04:27:44;19.25;51.55
75964;DHT22;65820;44.726;37.764;2023-03-30T04:29:19;19.26;51.53
75964;DHT22;65820;44.726;37.764;2023-03-30T04:30:57;19.27;51.37
75964;DHT22;65820;44.726;37.764;2023-03-30T04:32:22;19.27;51.43
75964;DHT22;65820;44.726;37.764;2023-03-30T04:33:40;19.28;51.32
75964;DHT22;65820;44.726;37.764;2023-03-30T04:35:08;19.28;51.30
75964;DHT22;65820;44.726;37.764;2023-03-30T04:36:41;19.29;51.25
75964;DHT22;65820;44.726;37.764;2023-03-30T04:38:09;19.30;51.29
75964;DHT22;65820;44.726;37.764;2023-03-30T04:39:13;19.30;51.27
75964;DHT22;65820;44.726;37.764;2023-03-30T04:40:20;19.30;51.25
75964;DHT22;65820;44.726;37.764;2023-03-30T04:41:49;19.33;51.27
75964;DHT22;65820;44.726;37.764;2023-03-30T04:43:16;19.33;51.26
75964;DHT22;65820;44.726;37.764;2023-03-30T04:44:29;19.35;51.21
75964;DHT22;65820;44.726;37.764;2023-03-30T04:45:54;19.33;51.23
75964;DHT22;65820;44.726;37.764;2023-03-30T04:47:11;19.33;51.21
75964;DHT22;65820;44.726;37.764;2023-03-30T04:48:36;19.36;51.20
75964;DHT22;65820;44.726;37.764;2023-03-30T04:50:00;19.37;51.21
75964;DHT22;65820;44.726;37.764;2023-03-30T04:51:21;19.36;51.24
75964;DHT22;65820;44.726;37.764;2023-03-30T04:52:41;19.36;51.24
75964;DHT22;65820;44.726;37.764;2023-03-30T04:53:59;19.39;51.21
75964;DHT22;65820;44.726;37.764;2023-03-30T04:55:25;19.38;51.23
75964;DHT22;65820;44.726;37.764;2023-03-30T04:56:43;19.37;51.24
75964;DHT22;65820;44.726;37.764;2023-03-30T04:58:03;19.38;51.21
75964;DHT22;65820;44.726;37.764;2023-03-30T04:59:24;19.39;51.17
75964;DHT22;65820;44.726;37.764;2023-03-30T05:00:32;19.38;51.20
75964;DHT22;65820;44.726;37.764;2023-03-30T05:01:51;19.38;51.21
75964;DHT22;65820;44.726;37.764;2023-03-30T05:03:29;19.39;51.20
75964;DHT22;65820;44.726;37.764;2023-03-30T05:05:00;19.40;51.21
75964;DHT22;65820;44.726;37.764;2023-03-30T05:06:21;19.40;51.23
75964;DHT22;65820;44.726;37.764;2023-03-30T05:07:31;19.39;51.20
75964;DHT22;65820;44.726;37.764;2023-03-30T05:08:50;19.40;51.22
75964;DHT22;65820;44.726;37.764;2023-03-30T05:10:19;19.40;51.23
75964;DHT22;65820;44.726;37.764;2023-03-30T05:11:45;19.40;51.27
75964;DHT22;65820;44.726;37.764;2023-03-30T05:13:03;19.41;51.25
75964;DHT22;65820;44.726;37.764;2023-03-30T05:14:23;19.42;51.23
75964;DHT22;65820;44.726;37.764;2023-03-30T05:15:54;19.42;51.24
75964;DHT22;65820;44.726;37.764;2023-03-30T05:17:14;19.42;51.24
75964;DHT22;65820;44.726;37.764;2023-03-30T05:18:35;19.41;51.24
75964;DHT22;65820;44.726;37.764;2023-03-30T05:19:41;19.42;51.27
75964;DHT22;65820;44.726;37.764;2023-03-30T05:21:01;19.42;51.26
75964;DHT22;65820;44.726;37.764;2023-03-30T05:22:31;19.43;51.24
75964;DHT22;65820;44.726;37.764;2023-03-30T05:23:45;19.43;51.24
75964;DHT22;65820;44.726;37.764;2023-03-30T05:25:09;19.43;51.24
75964;DHT22;65820;44.726;37.764;2023-03-30T05:26:21;19.44;51.29
75964;DHT22;65820;44.726;37.764;2023-03-30T05:27:55;19.43;51.32
75964;DHT22;65820;44.726;37.764;2023-03-30T05:29:36;19.44;51.33
75964;DHT22;65820;44.726;37.764;2023-03-30T05:30:55;19.44;51.33
75964;DHT22;65820;44.726;37.764;2023-03-30T05:32:28;19.44;51.32
75964;DHT22;65820;44.726;37.764;2023-03-30T05:33:39;19.44;51.32
75964;DHT22;65820;44.726;37.764;2023-03-30T05:34:59;19.44;51.30
75964;DHT22;65820;44.726;37.764;2023-03-30T05:36:30;19.44;51.30
75964;DHT22;65820;44.726;37.764;2023-03-30T05:37:40;19.45;51.30
75964;DHT22;65820;44.726;37.764;2023-03-30T05:39:07;19.44;51.30
75964;DHT22;65820;44.726;37.764;2023-03-30T05:40:35;19.43;51.29
75964;DHT22;65820;44.726;37.764;2023-03-30T05:41:36;19.46;51.30
75964;DHT22;65820;44.726;37.764;2023-03-30T05:43:03;19.44;51.31
75964;DHT22;65820;44.726;37.764;2023-03-30T05:44:28;19.45;51.27
75964;DHT22;65820;44.726;37.764;2023-03-30T05:45:48;19.46;51.32
75964;DHT22;65820;44.726;37.764;2023-03-30T05:47:10;19.46;51.34
75964;DHT22;65820;44.726;37.764;2023-03-30T05:48:29;19.46;51.30
75964;DHT22;65820;44.726;37.764;2023-03-30T05:49:54;19.47;51.34
75964;DHT22;65820;44.726;37.764;2023-03-30T05:51:00;19.46;51.32
75964;DHT22;65820;44.726;37.764;2023-03-30T05:52:20;19.48;51.26
75964;DHT22;65820;44.726;37.764;2023-03-30T05:53:31;19.47;51.27
75964;DHT22;65820;44.726;37.764;2023-03-30T05:54:49;19.48;51.30
75964;DHT22;65820;44.726;37.764;2023-03-30T05:56:09;19.48;51.29
75964;DHT22;65820;44.726;37.764;2023-03-30T05:57:24;19.48;51.27
75964;DHT22;65820;44.726;37.764;2023-03-30T05:58:49;19.48;51.32
75964;DHT22;65820;44.726;37.764;2023-03-30T06:00:10;19.48;51.31
75964;DHT22;65820;44.726;37.764;2023-03-30T06:01:17;19.50;51.28
75964;DHT22;65820;44.726;37.764;2023-03-30T06:02:21;19.50;51.29
75964;DHT22;65820;44.726;37.764;2023-03-30T06:03:24;19.48;51.32
75964;DHT22;65820;44.726;37.764;2023-03-30T06:04:25;19.50;51.30
75964;DHT22;65820;44.726;37.764;2023-03-30T06:05:27;19.50;51.28
75964;DHT22;65820;44.726;37.764;2023-03-30T06:06:29;19.48;51.27
75964;DHT22;65820;44.726;37.764;2023-03-30T06:07:31;19.50;51.29
75964;DHT22;65820;44.726;37.764;2023-03-30T06:08:33;19.50;51.27
75964;DHT22;65820;44.726;37.764;2023-03-30T06:09:37;19.50;51.31
75964;DHT22;65820;44.726;37.764;2023-03-30T06:10:55;19.51;51.27
75964;DHT22;65820;44.726;37.764;2023-03-30T06:11:58;19.51;51.26
75964;DHT22;65820;44.726;37.764;2023-03-30T06:13:00;19.51;51.24
75964;DHT22;65820;44.726;37.764;2023-03-30T06:14:13;19.52;51.24
75964;DHT22;65820;44.726;37.764;2023-03-30T06:15:20;19.53;51.26
75964;DHT22;65820;44.726;37.764;2023-03-30T06:16:36;19.52;51.23
75964;DHT22;65820;44.726;37.764;2023-03-30T06:17:37;19.53;51.22
75964;DHT22;65820;44.726;37.764;2023-03-30T06:18:38;19.54;51.21
75964;DHT22;65820;44.726;37.764;2023-03-30T06:19:43;19.53;51.19
75964;DHT22;65820;44.726;37.764;2023-03-30T06:20:47;19.52;51.22
75964;DHT22;65820;44.726;37.764;2023-03-30T06:21:49;19.53;51.21
75964;DHT22;65820;44.726;37.764;2023-03-30T06:23:03;19.54;51.19
75964;DHT22;65820;44.726;37.764;2023-03-30T06:24:05;19.53;51.14
75964;DHT22;65820;44.726;37.764;2023-03-30T06:25:09;19.54;51.16
75964;DHT22;65820;44.726;37.764;2023-03-30T06:26:10;19.54;51.15
75964;DHT22;65820;44.726;37.764;2023-03-30T06:27:12;19.54;51.15
75964;DHT22;65820;44.726;37.764;2023-03-30T06:28:13;19.55;51.14
75964;DHT22;65820;44.726;37.764;2023-03-30T06:29:15;19.55;51.15
75964;DHT22;65820;44.726;37.764;2023-03-30T06:30:16;19.55;51.17
75964;DHT22;65820;44.726;37.764;2023-03-30T06:31:21;19.55;51.15
75964;DHT22;65820;44.726;37.764;2023-03-30T06:32:29;19.56;51.15
75964;DHT22;65820;44.726;37.764;2023-03-30T06:33:49;19.56;51.16
75964;DHT22;65820;44.726;37.764;2023-03-30T06:34:51;19.57;51.14
75964;DHT22;65820;44.726;37.764;2023-03-30T06:35:54;19.56;51.10
75964;DHT22;65820;44.726;37.764;2023-03-30T06:36:57;19.57;51.10
75964;DHT22;65820;44.726;37.764;2023-03-30T06:37:59;19.56;51.11
75964;DHT22;65820;44.726;37.764;2023-03-30T06:39:02;19.57;51.08
75964;DHT22;65820;44.726;37.764;2023-03-30T06:40:06;19.57;51.09
75964;DHT22;65820;44.726;37.764;2023-03-30T06:41:13;19.57;51.11
75964;DHT22;65820;44.726;37.764;2023-03-30T06:42:18;19.59;51.10
75964;DHT22;65820;44.726;37.764;2023-03-30T06:43:35;19.59;51.11
75964;DHT22;65820;44.726;37.764;2023-03-30T06:44:50;19.60;50.99
75964;DHT22;65820;44.726;37.764;2023-03-30T06:45:55;19.61;50.85
75964;DHT22;65820;44.726;37.764;2023-03-30T06:46:57;19.62;50.66
75964;DHT22;65820;44.726;37.764;2023-03-30T06:47:58;19.63;50.51
75964;DHT22;65820;44.726;37.764;2023-03-30T06:49:00;19.65;50.34
75964;DHT22;65820;44.726;37.764;2023-03-30T06:50:17;19.65;50.20
75964;DHT22;65820;44.726;37.764;2023-03-30T06:51:19;19.65;50.18
75964;DHT22;65820;44.726;37.764;2023-03-30T06:52:22;19.67;50.05
75964;DHT22;65820;44.726;37.764;2023-03-30T06:53:23;19.67;49.98
75964;DHT22;65820;44.726;37.764;2023-03-30T06:54:26;19.67;49.93
75964;DHT22;65820;44.726;37.764;2023-03-30T06:55:33;19.68;49.92
75964;DHT22;65820;44.726;37.764;2023-03-30T06:56:35;19.69;49.86
75964;DHT22;65820;44.726;37.764;2023-03-30T06:57:41;19.68;49.73
75964;DHT22;65820;44.726;37.764;2023-03-30T06:58:43;19.70;49.75
75964;DHT22;65820;44.726;37.764;2023-03-30T06:59:45;19.70;49.66
75964;DHT22;65820;44.726;37.764;2023-03-30T07:00:56;19.71;49.66
75964;DHT22;65820;44.726;37.764;2023-03-30T07:02:12;19.72;49.65
75964;DHT22;65820;44.726;37.764;2023-03-30T07:03:30;19.72;49.56
75964;DHT22;65820;44.726;37.764;2023-03-30T07:04:41;19.71;49.55
75964;DHT22;65820;44.726;37.764;2023-03-30T07:06:01;19.72;49.53
75964;DHT22;65820;44.726;37.764;2023-03-30T07:07:08;19.73;49.47
75964;DHT22;65820;44.726;37.764;2023-03-30T07:08:10;19.73;49.40
75964;DHT22;65820;44.726;37.764;2023-03-30T07:09:14;19.74;49.37
75964;DHT22;65820;44.726;37.764;2023-03-30T07:10:16;19.74;49.36
75964;DHT22;65820;44.726;37.764;2023-03-30T07:11:19;19.74;49.31
75964;DHT22;65820;44.726;37.764;2023-03-30T07:12:20;19.75;49.22
75964;DHT22;65820;44.726;37.764;2023-03-30T07:13:22;19.75;49.27
75964;DHT22;65820;44.726;37.764;2023-03-30T07:14:25;19.76;49.29
75964;DHT22;65820;44.726;37.764;2023-03-30T07:15:26;19.75;49.21
75964;DHT22;65820;44.726;37.764;2023-03-30T07:16:28;19.75;49.17
75964;DHT22;65820;44.726;37.764;2023-03-30T07:17:29;19.76;49.17
75964;DHT22;65820;44.726;37.764;2023-03-30T07:18:31;19.76;49.14
75964;DHT22;65820;44.726;37.764;2023-03-30T07:19:32;19.76;49.10
75964;DHT22;65820;44.726;37.764;2023-03-30T07:20:34;19.77;49.09
75964;DHT22;65820;44.726;37.764;2023-03-30T07:21:46;19.76;49.05
75964;DHT22;65820;44.726;37.764;2023-03-30T07:22:51;19.77;49.05
75964;DHT22;65820;44.726;37.764;2023-03-30T07:23:53;19.77;49.01
75964;DHT22;65820;44.726;37.764;2023-03-30T07:25:05;19.80;49.01
75964;DHT22;65820;44.726;37.764;2023-03-30T07:26:08;19.77;48.89
75964;DHT22;65820;44.726;37.764;2023-03-30T07:27:15;19.77;48.91
75964;DHT22;65820;44.726;37.764;2023-03-30T07:28:18;19.79;48.86
75964;DHT22;65820;44.726;37.764;2023-03-30T07:29:20;19.80;48.83
75964;DHT22;65820;44.726;37.764;2023-03-30T07:30:26;19.80;48.83
75964;DHT22;65820;44.726;37.764;2023-03-30T07:31:34;19.80;48.83
75964;DHT22;65820;44.726;37.764;2023-03-30T07:32:37;19.79;48.79
75964;DHT22;65820;44.726;37.764;2023-03-30T07:33:41;19.80;48.79
75964;DHT22;65820;44.726;37.764;2023-03-30T07:34:45;19.80;48.80
75964;DHT22;65820;44.726;37.764;2023-03-30T07:35:49;19.81;48.76
75964;DHT22;65820;44.726;37.764;2023-03-30T07:36:55;19.81;48.71
75964;DHT22;65820;44.726;37.764;2023-03-30T07:38:01;19.81;48.63
75964;DHT22;65820;44.726;37.764;2023-03-30T07:39:06;19.81;48.63
75964;DHT22;65820;44.726;37.764;2023-03-30T07:40:10;19.82;48.66
75964;DHT22;65820;44.726;37.764;2023-03-30T07:41:15;19.80;48.62
75964;DHT22;65820;44.726;37.764;2023-03-30T07:42:22;19.81;48.58
75964;DHT22;65820;44.726;37.764;2023-03-30T07:43:24;19.82;48.44
75964;DHT22;65820;44.726;37.764;2023-03-30T07:44:28;19.82;48.50
75964;DHT22;65820;44.726;37.764;2023-03-30T07:45:35;19.82;48.51
75964;DHT22;65820;44.726;37.764;2023-03-30T07:46:39;19.82;48.47
75964;DHT22;65820;44.726;37.764;2023-03-30T07:47:45;19.83;48.47
75964;DHT22;65820;44.726;37.764;2023-03-30T07:48:46;19.82;48.47
75964;DHT22;65820;44.726;37.764;2023-03-30T07:49:48;19.83;48.41
75964;DHT22;65820;44.726;37.764;2023-03-30T07:50:49;19.84;48.43
75964;DHT22;65820;44.726;37.764;2023-03-30T07:51:52;19.83;48.37
75964;DHT22;65820;44.726;37.764;2023-03-30T07:52:59;19.83;48.34